Time;durP1;ratioP1;P1;durP2;ratioP2;P2;SDS_P1;SDS_P2;PMS_P1;PMS_P2;Temp;Humidity;BMP_temperature;BMP_pressure;BME280_temperature;BME280_humidity;BME280_pressure;Samples;Min_cycle;Max_cycle;Signal;HPM_P1;HPM_P2
2022/05/08 00:01:58;;;;;;;15.50;6.43;;;;;;;12.53;35.59;99783.50;5076969;27;20046;-72
2022/05/08 00:04:23;;;;;;;14.73;7.18;;;;;;;12.65;35.31;99780.72;5077418;27;20461;-69
2022/05/08 00:06:48;;;;;;;12.90;6.70;;;;;;;12.52;35.85;99787.16;5097152;27;20054;-71
2022/05/08 00:09:12;;;;;;;15.75;7.53;;;;;;;12.50;36.26;99778.41;5046905;28;20056;-68
2022/05/08 00:11:37;;;;;;;13.23;6.68;;;;;;;12.49;35.85;99782.91;5056047;28;20518;-63
2022/05/08 00:14:02;;;;;;;14.75;7.63;;;;;;;12.48;36.12;99786.53;5060153;28;20048;-66
2022/05/08 00:16:27;;;;;;;15.35;7.20;;;;;;;12.47;36.09;99784.84;5045194;28;20048;-67
2022/05/08 00:18:51;;;;;;;18.33;8.02;;;;;;;12.46;36.30;99783.13;5064158;28;20039;-61
2022/05/08 00:21:16;;;;;;;16.65;6.90;;;;;;;12.59;35.92;99775.00;5043178;28;20040;-62
2022/05/08 00:23:41;;;;;;;10.93;6.78;;;;;;;12.68;35.73;99775.16;5061965;28;20040;-63
2022/05/08 00:26:08;;;;;;;11.95;7.63;;;;;;;12.62;36.12;99772.97;5061639;28;20570;-63
2022/05/08 00:28:33;;;;;;;12.93;7.38;;;;;;;12.46;36.02;99780.47;5021304;28;20028;-63
2022/05/08 00:30:58;;;;;;;13.10;6.47;;;;;;;12.45;36.63;99780.56;5062516;28;20040;-63
2022/05/08 00:33:23;;;;;;;11.73;7.00;;;;;;;12.43;36.33;99777.16;5029275;28;20110;-64
2022/05/08 00:35:48;;;;;;;9.27;7.00;;;;;;;12.47;36.55;99768.78;5061696;28;20125;-64
2022/05/08 00:38:12;;;;;;;10.43;7.40;;;;;;;12.53;36.04;99762.09;5053872;28;20035;-65
2022/05/08 00:40:37;;;;;;;14.73;7.93;;;;;;;12.70;36.01;99757.16;5054612;28;20043;-62
2022/05/08 00:43:32;;;;;;;12.90;7.30;;;;;;;12.82;35.98;99757.16;5054012;28;20082;-61
2022/05/08 00:45:58;;;;;;;12.32;7.57;;;;;;;12.73;35.55;99758.75;5053044;28;20135;-63
2022/05/08 00:48:23;;;;;;;14.98;7.85;;;;;;;12.55;36.64;99747.66;5060259;28;20032;-62
2022/05/08 00:50:49;;;;;;;12.95;7.72;;;;;;;12.50;36.29;99741.81;5061867;28;20100;-61
2022/05/08 00:53:14;;;;;;;11.55;7.57;;;;;;;12.46;36.31;99740.34;5057170;28;20036;-61
2022/05/08 00:55:39;;;;;;;12.90;7.43;;;;;;;12.45;36.44;99744.00;5043831;28;20048;-63
2022/05/08 00:58:05;;;;;;;20.27;8.60;;;;;;;12.44;36.53;99736.09;5037740;28;20051;-65
2022/05/08 01:00:30;;;;;;;11.77;6.95;;;;;;;12.61;36.06;99732.97;5058797;28;20040;-67
2022/05/08 01:02:57;;;;;;;11.20;7.20;;;;;;;12.52;36.45;99733.69;5059658;28;21030;-62
2022/05/08 01:05:23;;;;;;;18.38;7.47;;;;;;;12.42;36.54;99727.31;5058049;28;20040;-61
2022/05/08 01:07:47;;;;;;;13.90;7.35;;;;;;;12.40;36.58;99732.81;5061537;27;20471;-62
2022/05/08 01:10:12;;;;;;;13.43;7.57;;;;;;;12.34;36.77;99725.25;5056217;27;20494;-66
2022/05/08 01:12:44;;;;;;;17.80;7.68;;;;;;;12.35;36.85;99726.97;5099231;27;20118;-64
2022/05/08 01:15:13;;;;;;;19.92;7.80;;;;;;;12.44;36.57;99726.25;5101787;27;20551;-67
2022/05/08 01:17:37;;;;;;;12.93;7.55;;;;;;;12.39;36.68;99717.75;5083052;27;20038;-70
2022/05/08 01:20:03;;;;;;;17.45;8.20;;;;;;;12.47;36.54;99719.81;5100293;27;20043;-63
2022/05/08 01:22:28;;;;;;;12.70;8.25;;;;;;;12.39;36.64;99717.75;5079407;27;20038;-68
2022/05/08 01:24:53;;;;;;;14.15;8.10;;;;;;;12.34;36.82;99725.25;5079854;27;20102;-69
2022/05/08 01:27:17;;;;;;;12.85;8.13;;;;;;;12.42;36.58;99721.97;5061545;27;20126;-69
2022/05/08 01:29:42;;;;;;;17.60;9.48;;;;;;;12.45;36.08;99716.41;5063207;27;20039;-68
2022/05/08 01:32:07;;;;;;;18.23;10.00;;;;;;;12.47;36.53;99714.47;5098991;27;20125;-70
2022/05/08 01:34:32;;;;;;;18.75;10.02;;;;;;;12.47;36.59;99717.13;5098963;27;20453;-70
2022/05/08 01:36:57;;;;;;;16.15;9.50;;;;;;;12.59;36.32;99705.47;5099050;27;20391;-69
2022/05/08 01:39:21;;;;;;;14.82;9.32;;;;;;;12.47;36.74;99699.28;5098842;27;20127;-69
2022/05/08 01:41:46;;;;;;;17.40;8.75;;;;;;;12.45;36.70;99701.22;5064131;27;20047;-70
2022/05/08 01:44:11;;;;;;;13.20;8.90;;;;;;;12.43;36.80;99697.78;5080746;27;20070;-72
2022/05/08 01:46:36;;;;;;;15.05;8.25;;;;;;;12.45;36.72;99701.22;5099073;27;20038;-69
2022/05/08 01:49:00;;;;;;;14.63;7.80;;;;;;;12.28;37.21;99704.34;5063934;27;20096;-69
2022/05/08 01:51:25;;;;;;;12.57;7.30;;;;;;;12.35;36.76;99706.44;5080242;27;20940;-69
2022/05/08 01:53:50;;;;;;;14.77;8.43;;;;;;;12.27;37.02;99703.50;5099040;27;20047;-68
2022/05/08 01:56:14;;;;;;;13.13;7.50;;;;;;;12.32;37.19;99706.66;5098785;27;20083;-68
2022/05/08 01:58:39;;;;;;;13.43;7.50;;;;;;;12.27;37.17;99702.66;5097847;27;20042;-67
2022/05/08 02:01:08;;;;;;;10.02;6.90;;;;;;;12.26;37.18;99708.97;5097280;27;20083;-68
2022/05/08 02:03:33;;;;;;;11.95;7.82;;;;;;;12.27;37.03;99714.19;5045279;27;20054;-67
2022/05/08 02:05:57;;;;;;;10.05;6.80;;;;;;;12.44;36.49;99695.97;5059156;27;20085;-67
2022/05/08 02:08:22;;;;;;;13.15;7.53;;;;;;;12.50;37.08;99701.72;5097831;27;20097;-64
2022/05/08 02:10:51;;;;;;;14.57;7.53;;;;;;;12.31;37.27;99704.09;5096963;27;20074;-67
2022/05/08 02:13:16;;;;;;;18.25;7.47;;;;;;;12.27;37.26;99703.50;5097820;27;20066;-68
2022/05/08 02:15:42;;;;;;;14.15;6.75;;;;;;;12.44;37.17;99704.00;5079781;27;20050;-68
2022/05/08 02:18:11;;;;;;;11.70;6.10;;;;;;;12.50;36.46;99700.88;5098083;27;20039;-69
2022/05/08 02:20:39;;;;;;;12.20;6.90;;;;;;;12.41;37.09;99706.94;5098004;27;20051;-67
2022/05/08 02:23:04;;;;;;;13.23;5.80;;;;;;;12.42;37.03;99700.59;5097710;27;20042;-70
2022/05/08 02:25:33;;;;;;;13.15;7.50;;;;;;;12.27;37.37;99699.97;5097950;27;20121;-67
2022/05/08 02:27:58;;;;;;;12.13;5.78;;;;;;;12.42;37.00;99696.09;5079351;27;20042;-69
2022/05/08 02:30:23;;;;;;;15.40;7.68;;;;;;;12.43;37.01;99697.78;5097689;27;20043;-70
2022/05/08 02:32:53;;;;;;;11.93;7.25;;;;;;;12.50;37.04;99708.88;5062610;27;20047;-69
2022/05/08 02:35:20;;;;;;;8.20;5.30;;;;;;;12.56;37.14;99703.03;5079023;27;20409;-64
2022/05/08 02:37:45;;;;;;;11.52;6.88;;;;;;;12.56;36.88;99701.22;5097230;27;20038;-68
2022/05/08 02:40:10;;;;;;;14.95;7.18;;;;;;;12.45;37.09;99698.53;5078817;27;20091;-70
2022/05/08 02:42:37;;;;;;;14.10;6.88;;;;;;;12.50;36.94;99699.03;5079482;27;20047;-69
2022/05/08 02:45:03;;;;;;;12.20;6.82;;;;;;;12.50;36.96;99704.38;5079243;27;20129;-68
2022/05/08 02:47:28;;;;;;;13.95;6.90;;;;;;;12.38;37.10;99691.13;5062116;27;20046;-69
2022/05/08 02:49:53;;;;;;;15.35;7.13;;;;;;;12.28;37.30;99693.66;5097469;27;20046;-68
2022/05/08 02:52:18;;;;;;;17.42;7.57;;;;;;;12.32;37.62;99698.63;5097097;27;20042;-68
2022/05/08 02:54:43;;;;;;;14.73;7.15;;;;;;;12.25;38.16;99699.25;5079320;27;20053;-68
2022/05/08 02:59:51;;;;;;;13.50;6.50;;;;;;;12.35;37.73;99695.72;5097295;27;20043;-68
2022/05/08 03:02:16;;;;;;;18.80;8.02;;;;;;;12.31;37.95;99702.28;5096821;27;20054;-65
2022/05/08 03:04:41;;;;;;;16.70;7.43;;;;;;;12.34;37.68;99702.03;5061219;27;20423;-62
2022/05/08 03:07:06;;;;;;;12.60;6.80;;;;;;;12.28;38.01;99701.69;5096769;27;20410;-63
2022/05/08 03:09:30;;;;;;;13.32;6.90;;;;;;;12.36;37.98;99701.94;5096327;27;20058;-66
2022/05/08 03:11:55;;;;;;;15.50;8.07;;;;;;;12.36;37.83;99701.94;5078333;27;20039;-63
2022/05/08 03:14:24;;;;;;;17.58;8.02;;;;;;;12.39;37.68;99707.06;5077879;27;20047;-64
2022/05/08 03:16:49;;;;;;;9.32;6.20;;;;;;;12.46;37.54;99705.59;5061372;27;20039;-69
2022/05/08 03:19:14;;;;;;;19.42;8.35;;;;;;;12.49;37.72;99710.72;5061154;27;20045;-68
2022/05/08 03:21:40;;;;;;;14.07;6.80;;;;;;;12.50;37.52;99720.44;5061077;27;20039;-70
2022/05/08 03:24:06;;;;;;;14.23;6.95;;;;;;;12.48;37.71;99717.03;5080151;27;20411;-68
2022/05/08 03:26:31;;;;;;;19.90;8.23;;;;;;;12.46;37.80;99710.09;5084170;27;20035;-72
2022/05/08 03:28:56;;;;;;;16.08;8.13;;;;;;;12.49;37.73;99717.88;5083122;27;20078;-69
2022/05/08 03:31:21;;;;;;;16.77;7.95;;;;;;;12.53;38.06;99709.47;5100965;27;20054;-61
2022/05/08 03:33:46;;;;;;;17.00;7.40;;;;;;;12.61;38.04;99715.09;5101041;27;20545;-62
2022/05/08 03:36:11;;;;;;;15.32;8.32;;;;;;;12.64;37.84;99708.66;5080608;27;20497;-62
2022/05/08 03:38:40;;;;;;;14.30;7.90;;;;;;;12.77;37.81;99711.19;5099408;27;20050;-65
2022/05/08 03:41:05;;;;;;;18.20;7.88;;;;;;;12.88;37.56;99705.84;5076400;27;20031;-63
2022/05/08 03:43:29;;;;;;;18.52;8.50;;;;;;;13.01;37.45;99703.88;5096052;27;20046;-61
2022/05/08 03:45:55;;;;;;;14.60;8.43;;;;;;;13.14;37.23;99714.44;5096135;27;20046;-65
2022/05/08 03:48:21;;;;;;;17.08;9.85;;;;;;;13.01;37.87;99711.91;5060314;27;20525;-66
2022/05/08 03:50:46;;;;;;;17.15;8.52;;;;;;;13.06;37.63;99715.06;5097700;27;20045;-64
2022/05/08 03:53:11;;;;;;;20.23;7.88;;;;;;;13.25;37.13;99696.56;5098946;27;20098;-65
2022/05/08 03:55:36;;;;;;;19.23;8.20;;;;;;;13.49;37.09;99711.59;5094982;27;20031;-65
2022/05/08 03:58:01;;;;;;;20.13;10.38;;;;;;;13.15;38.27;99702.81;5094858;27;20039;-65
2022/05/08 04:00:26;;;;;;;14.23;8.50;;;;;;;12.90;39.20;99703.88;5060176;27;20031;-65
2022/05/08 04:02:51;;;;;;;16.23;8.80;;;;;;;12.48;39.44;99703.66;5095602;27;20046;-64
2022/05/08 04:05:16;;;;;;;11.20;6.68;;;;;;;12.78;38.06;99700.38;5045878;27;20041;-64
2022/05/08 04:07:41;;;;;;;12.85;7.07;;;;;;;12.84;37.75;99701.72;5078787;27;20065;-64
2022/05/08 04:10:07;;;;;;;16.65;10.65;;;;;;;12.96;38.13;99700.75;5079619;27;20046;-66
2022/05/08 04:12:32;;;;;;;18.38;9.02;;;;;;;12.97;37.66;99697.09;5096800;27;20114;-65
2022/05/08 04:14:57;;;;;;;14.48;8.05;;;;;;;13.11;37.33;99696.81;5077996;27;20039;-65
2022/05/08 04:17:23;;;;;;;20.83;10.15;;;;;;;13.23;37.34;99697.66;5096542;27;20092;-67
2022/05/08 04:19:49;;;;;;;19.63;8.68;;;;;;;13.41;36.64;99690.81;5062855;27;20099;-65
2022/05/08 04:25:00;;;;;;;15.77;9.05;;;;;;;13.78;36.33;99691.28;5107822;27;20155;-66
2022/05/08 04:27:26;;;;;;;19.45;9.30;;;;;;;13.86;36.53;99685.28;5107175;27;20043;-67
2022/05/08 04:29:50;;;;;;;11.02;5.88;;;;;;;13.96;35.43;99688.88;5106489;27;20576;-64
2022/05/08 04:32:15;;;;;;;18.65;8.75;;;;;;;13.78;35.87;99681.41;5083477;27;20407;-62
2022/05/08 04:34:40;;;;;;;18.83;8.88;;;;;;;13.76;36.26;99682.53;5081108;28;20043;-62
2022/05/08 04:37:05;;;;;;;21.08;10.25;;;;;;;13.73;36.65;99689.00;5101533;28;20112;-62
2022/05/08 04:39:29;;;;;;;15.32;9.75;;;;;;;14.09;35.28;99687.72;5082777;28;20066;-63
2022/05/08 04:41:54;;;;;;;17.80;10.07;;;;;;;14.47;35.48;99683.59;5097461;28;20091;-63
2022/05/08 04:44:19;;;;;;;15.30;8.45;;;;;;;14.94;34.48;99683.94;5096670;28;20043;-63
2022/05/08 04:46:44;;;;;;;19.00;8.88;;;;;;;15.41;33.91;99688.56;5096873;28;20047;-62
2022/05/08 04:49:08;;;;;;;16.80;9.38;;;;;;;15.59;33.27;99678.84;5078008;28;20126;-62
2022/05/08 04:51:33;;;;;;;17.98;8.98;;;;;;;15.77;33.67;99673.66;5078114;28;20047;-63
2022/05/08 04:53:58;;;;;;;17.63;9.43;;;;;;;15.78;33.45;99682.56;5095821;28;20039;-63
2022/05/08 04:56:23;;;;;;;19.08;9.15;;;;;;;15.94;33.39;99682.81;5077735;28;20376;-62
2022/05/08 04:58:48;;;;;;;20.13;8.93;;;;;;;16.19;32.68;99687.59;5095493;28;20088;-63
2022/05/08 05:01:13;;;;;;;17.27;9.38;;;;;;;16.50;32.29;99671.25;5095682;28;20564;-63
2022/05/08 05:03:38;;;;;;;18.60;8.65;;;;;;;16.88;31.92;99678.38;5095664;28;20039;-61
2022/05/08 05:06:03;;;;;;;24.02;10.65;;;;;;;16.98;31.41;99671.94;5095906;28;20050;-61
2022/05/08 05:08:28;;;;;;;17.27;9.23;;;;;;;17.03;31.35;99661.56;5076708;28;20050;-63
2022/05/08 05:10:53;;;;;;;15.75;9.20;;;;;;;17.19;31.23;99665.44;5095854;28;20035;-63
2022/05/08 05:13:17;;;;;;;20.33;9.48;;;;;;;17.43;30.92;99665.69;5077969;28;20146;-63
2022/05/08 05:15:42;;;;;;;14.73;9.07;;;;;;;17.82;30.51;99673.53;5095692;28;20039;-63
2022/05/08 05:18:07;;;;;;;16.85;10.68;;;;;;;18.09;30.46;99668.84;5096117;28;20659;-62
2022/05/08 05:20:32;;;;;;;17.83;8.27;;;;;;;18.20;29.74;99662.34;5078061;28;20043;-64
2022/05/08 05:23:03;;;;;;;18.15;9.40;;;;;;;18.08;29.95;99666.31;5097362;28;20051;-63
2022/05/08 05:25:29;;;;;;;20.73;9.63;;;;;;;17.97;29.82;99669.25;5097572;28;20047;-64
2022/05/08 05:27:55;;;;;;;14.52;8.70;;;;;;;17.80;30.32;99664.75;5078823;28;20043;-65
2022/05/08 05:30:20;;;;;;;24.88;10.40;;;;;;;17.85;30.13;99665.09;5097789;28;20513;-65
2022/05/08 05:32:45;;;;;;;15.15;8.55;;;;;;;18.00;29.93;99659.00;5078586;28;20092;-64
2022/05/08 05:35:10;;;;;;;18.40;8.57;;;;;;;18.14;29.72;99655.75;5097017;28;20051;-63
2022/05/08 05:37:35;;;;;;;18.73;8.85;;;;;;;18.17;29.83;99660.00;5063153;28;20136;-64
2022/05/08 05:39:59;;;;;;;21.05;9.05;;;;;;;18.20;29.83;99656.97;5098935;28;20039;-65
2022/05/08 05:42:24;;;;;;;15.82;7.68;;;;;;;18.29;29.63;99655.16;5060795;28;20043;-64
2022/05/08 05:44:49;;;;;;;18.48;8.70;;;;;;;18.23;29.72;99663.91;5060582;27;20159;-65
2022/05/08 05:49:57;;;;;;;16.77;8.43;;;;;;;18.03;30.37;99655.16;5098915;27;20100;-66
2022/05/08 05:52:22;;;;;;;23.05;8.27;;;;;;;18.19;30.17;99652.56;5046415;27;20047;-65
2022/05/08 05:54:46;;;;;;;16.45;8.55;;;;;;;18.43;30.17;99652.75;5098786;27;20099;-65
2022/05/08 05:57:11;;;;;;;14.20;7.80;;;;;;;18.70;29.74;99659.84;5080675;27;20469;-65
2022/05/08 05:59:36;;;;;;;14.77;7.45;;;;;;;18.55;29.91;99657.88;5098639;27;20386;-65
2022/05/08 06:02:01;;;;;;;16.08;8.60;;;;;;;18.39;30.36;99647.84;5079876;27;20103;-65
2022/05/08 06:04:25;;;;;;;13.10;8.18;;;;;;;18.22;30.90;99644.16;5098709;27;20427;-66
2022/05/08 06:06:50;;;;;;;17.48;7.93;;;;;;;18.13;30.73;99643.28;5098232;27;20141;-65
2022/05/08 06:09:15;;;;;;;13.95;7.70;;;;;;;17.78;31.36;99638.78;5098251;27;20051;-65
2022/05/08 06:11:39;;;;;;;11.25;7.15;;;;;;;17.61;31.94;99639.59;5098410;27;20796;-65
2022/05/08 06:14:04;;;;;;;15.50;8.80;;;;;;;17.69;31.75;99634.31;5080057;27;20042;-65
2022/05/08 06:16:31;;;;;;;15.10;8.13;;;;;;;18.00;31.31;99636.59;5080079;27;20039;-68
2022/05/08 06:18:56;;;;;;;17.83;8.35;;;;;;;18.88;30.16;99637.28;5098506;27;20047;-65
2022/05/08 06:21:20;;;;;;;14.70;7.70;;;;;;;19.82;28.71;99627.06;5098039;27;20035;-65
2022/05/08 06:23:45;;;;;;;12.65;8.07;;;;;;;19.98;28.17;99621.63;5079892;27;20035;-66
2022/05/08 06:26:10;;;;;;;14.02;8.68;;;;;;;19.76;28.88;99627.72;5098388;27;20562;-65
2022/05/08 06:28:34;;;;;;;14.25;8.77;;;;;;;19.61;28.66;99624.84;5097585;27;20446;-65
2022/05/08 06:31:00;;;;;;;12.82;7.30;;;;;;;19.33;29.06;99626.97;5062269;27;20043;-65
2022/05/08 06:33:25;;;;;;;14.73;7.68;;;;;;;18.95;30.08;99623.00;5097709;27;20054;-66
2022/05/08 06:35:54;;;;;;;11.10;7.53;;;;;;;18.68;30.88;99620.50;5097857;27;20051;-65
2022/05/08 06:38:19;;;;;;;15.38;8.57;;;;;;;18.40;31.14;99617.09;5098069;27;20069;-65
2022/05/08 06:40:45;;;;;;;16.52;8.10;;;;;;;18.37;31.08;99628.25;5098643;27;20038;-65
2022/05/08 06:43:10;;;;;;;13.23;8.10;;;;;;;18.26;31.11;99620.41;5079423;27;20043;-64
2022/05/08 06:45:34;;;;;;;11.00;7.47;;;;;;;18.09;31.44;99611.34;5097574;27;20038;-65
2022/05/08 06:48:02;;;;;;;13.77;7.18;;;;;;;18.54;30.85;99618.38;5081828;27;20061;-63
2022/05/08 06:50:29;;;;;;;13.80;7.57;;;;;;;19.28;30.15;99614.97;5079497;27;20043;-65
2022/05/08 06:52:54;;;;;;;11.57;7.85;;;;;;;19.83;29.19;99613.38;5079605;27;20047;-64
2022/05/08 06:55:19;;;;;;;14.63;8.02;;;;;;;19.93;29.02;99611.31;5082314;27;20041;-65
2022/05/08 06:57:44;;;;;;;14.77;7.90;;;;;;;19.82;28.93;99610.81;5081363;27;20066;-65
2022/05/08 07:02:52;;;;;;;13.73;7.47;;;;;;;19.77;29.46;99605.06;5097512;27;20173;-65
2022/05/08 07:05:17;;;;;;;14.48;7.78;;;;;;;19.61;29.44;99608.63;5097211;27;20356;-65
2022/05/08 07:07:42;;;;;;;15.63;8.25;;;;;;;19.43;29.97;99616.00;5096822;27;20046;-66
2022/05/08 07:10:07;;;;;;;11.57;8.13;;;;;;;19.26;29.75;99611.59;5097283;27;20043;-65
2022/05/08 07:12:32;;;;;;;14.27;7.75;;;;;;;18.99;30.31;99608.13;5078892;27;20035;-66
2022/05/08 07:14:58;;;;;;;8.93;6.68;;;;;;;18.94;30.44;99604.25;5097171;27;20449;-67
2022/05/08 07:17:24;;;;;;;16.05;7.45;;;;;;;18.68;30.93;99604.31;5078736;27;20087;-66
2022/05/08 07:19:48;;;;;;;11.07;6.68;;;;;;;18.56;30.71;99610.97;5096935;27;20103;-66
2022/05/08 07:22:16;;;;;;;11.52;7.00;;;;;;;18.44;31.40;99603.13;5097045;27;20038;-67
2022/05/08 07:24:40;;;;;;;13.07;7.28;;;;;;;18.43;31.08;99604.16;5096605;27;20050;-66
2022/05/08 07:27:05;;;;;;;14.15;7.72;;;;;;;18.18;31.40;99596.91;5063429;27;20031;-65
2022/05/08 07:29:30;;;;;;;10.93;7.07;;;;;;;18.17;31.47;99594.41;5100305;27;20455;-66
2022/05/08 07:31:54;;;;;;;13.07;7.07;;;;;;;18.05;31.74;99600.06;5102401;27;20038;-66
2022/05/08 07:37:02;;;;;;;13.30;7.03;;;;;;;18.18;31.70;99591.50;5078465;27;20047;-67
2022/05/08 07:39:27;;;;;;;12.93;6.60;;;;;;;18.64;30.93;99592.97;5096716;27;20039;-65
2022/05/08 07:41:52;;;;;;;12.55;7.03;;;;;;;18.85;30.26;99589.84;5078108;27;20500;-67
2022/05/08 07:44:17;;;;;;;15.18;7.20;;;;;;;19.05;30.25;99593.97;5097240;27;20074;-67
2022/05/08 07:46:42;;;;;;;14.95;7.22;;;;;;;19.36;29.58;99582.53;5097046;27;20560;-66
2022/05/08 07:49:08;;;;;;;16.33;8.23;;;;;;;19.64;29.55;99583.13;5096580;27;20051;-65
2022/05/08 07:51:33;;;;;;;14.30;6.75;;;;;;;20.59;28.51;99591.25;5061106;27;20062;-65
2022/05/08 07:53:58;;;;;;;12.93;7.47;;;;;;;22.24;26.42;99580.81;5078706;27;20082;-66
2022/05/08 07:56:23;;;;;;;12.73;6.78;;;;;;;23.24;24.91;99594.72;5097361;27;20447;-63
2022/05/08 07:58:47;;;;;;;15.15;7.97;;;;;;;22.46;25.08;99585.31;5079349;27;20557;-62
2022/05/08 08:01:12;;;;;;;13.88;7.20;;;;;;;21.54;26.08;99577.53;5077825;27;20043;-63
2022/05/08 08:03:37;;;;;;;15.70;7.28;;;;;;;20.69;27.01;99571.22;5077712;27;20047;-62
2022/05/08 08:06:02;;;;;;;13.00;7.75;;;;;;;20.41;27.65;99576.25;5095913;27;20524;-62
2022/05/08 08:08:27;;;;;;;15.05;7.13;;;;;;;20.30;27.74;99572.88;5094879;27;20050;-63
2022/05/08 08:10:56;;;;;;;13.73;7.30;;;;;;;20.48;27.34;99575.38;5077863;27;20035;-63
2022/05/08 08:13:20;;;;;;;14.00;7.20;;;;;;;20.49;27.58;99560.81;5095939;27;20073;-62
2022/05/08 08:15:47;;;;;;;17.52;7.80;;;;;;;20.34;27.72;99573.34;5096167;27;20042;-63
2022/05/08 08:18:12;;;;;;;10.52;7.38;;;;;;;19.55;31.44;99560.59;5075350;27;20157;-63
2022/05/08 08:20:37;;;;;;;14.13;7.75;;;;;;;19.08;31.96;99573.84;5060520;27;20046;-64
2022/05/08 08:23:01;;;;;;;19.75;8.07;;;;;;;18.64;30.55;99555.16;5094596;27;20035;-62
2022/05/08 08:25:26;;;;;;;16.92;8.00;;;;;;;18.53;30.90;99563.53;5067549;28;20046;-64
2022/05/08 08:27:51;;;;;;;13.38;7.32;;;;;;;18.57;30.64;99566.75;5077372;27;20043;-64
2022/05/08 08:30:15;;;;;;;11.27;6.85;;;;;;;19.82;29.34;99567.53;5077439;27;20353;-63
2022/05/08 08:32:40;;;;;;;17.17;7.90;;;;;;;21.20;27.70;99557.09;5077550;28;20088;-66
2022/05/08 08:35:06;;;;;;;14.27;8.45;;;;;;;22.85;25.23;99564.31;5095589;28;20092;-62
2022/05/08 08:37:30;;;;;;;15.52;7.88;;;;;;;24.11;23.34;99545.50;5077468;28;20042;-64
2022/05/08 08:39:55;;;;;;;14.10;7.78;;;;;;;24.93;22.43;99548.31;5077220;28;20038;-62
2022/05/08 08:42:31;;;;;;;11.95;7.50;;;;;;;24.88;22.61;99551.59;5060755;28;20071;-62
2022/05/08 08:47:54;;;;;;;19.85;7.88;;;;;;;22.49;23.93;99545.22;5080917;28;20386;-64
2022/05/08 08:50:23;;;;;;;15.77;8.35;;;;;;;21.70;25.54;99540.25;5102884;28;20050;-63
2022/05/08 08:52:49;;;;;;;13.55;7.88;;;;;;;21.71;25.28;99541.09;5097447;28;20050;-63
2022/05/08 08:55:17;;;;;;;14.57;7.80;;;;;;;21.98;25.09;99540.53;5083399;28;20409;-64
2022/05/08 08:57:44;;;;;;;12.88;7.50;;;;;;;22.36;24.61;99533.13;5083701;28;20050;-63
2022/05/08 09:00:09;;;;;;;13.60;7.95;;;;;;;22.79;24.37;99536.06;5082496;28;20031;-64
2022/05/08 09:02:34;;;;;;;11.32;7.18;;;;;;;22.79;23.74;99533.34;5078040;28;20038;-64
2022/05/08 09:05:04;;;;;;;19.73;8.70;;;;;;;22.17;24.75;99544.56;5095855;28;20043;-64
2022/05/08 09:07:34;;;;;;;17.38;8.95;;;;;;;22.51;24.79;99538.56;5095088;28;20111;-63
2022/05/08 09:10:19;;;;;;;14.68;9.15;;;;;;;22.59;23.73;99530.31;5095336;28;20157;-63
2022/05/08 09:13:01;;;;;;;15.23;8.85;;;;;;;23.01;23.82;99539.66;5095333;28;20043;-62
2022/05/08 09:15:32;;;;;;;14.30;8.80;;;;;;;22.88;23.85;99534.06;5076936;28;20043;-63
2022/05/08 09:17:56;;;;;;;14.15;7.80;;;;;;;23.37;23.35;99529.56;5095282;28;20105;-64
2022/05/08 09:20:27;;;;;;;13.57;7.82;;;;;;;23.57;23.11;99539.84;5079697;27;20039;-64
2022/05/08 09:23:04;;;;;;;15.90;7.45;;;;;;;23.39;23.06;99522.03;5099460;27;20039;-63
2022/05/08 09:25:44;;;;;;;14.45;8.10;;;;;;;23.07;23.42;99525.28;5081141;27;20038;-65
2022/05/08 09:28:10;;;;;;;11.25;7.68;;;;;;;22.46;24.30;99521.97;5081090;27;20608;-64
2022/05/08 09:30:35;;;;;;;13.93;8.10;;;;;;;22.11;24.79;99512.75;5080315;27;20387;-63
2022/05/08 09:33:00;;;;;;;17.00;8.35;;;;;;;22.18;24.92;99520.97;5099454;27;20471;-63
2022/05/08 09:35:25;;;;;;;11.77;8.38;;;;;;;22.40;24.82;99518.16;5099019;27;20043;-63
2022/05/08 09:37:54;;;;;;;12.32;7.63;;;;;;;22.55;24.46;99515.44;5099119;27;20062;-62
2022/05/08 09:40:19;;;;;;;11.02;7.38;;;;;;;23.49;23.61;99499.94;5099184;27;20064;-63
2022/05/08 09:43:25;;;;;;;13.38;7.50;;;;;;;24.28;23.07;99497.84;5099062;27;20042;-64
2022/05/08 09:45:59;;;;;;;12.75;7.45;;;;;;;24.61;21.99;99508.91;5098756;27;20039;-64
2022/05/08 09:48:27;;;;;;;;;;;;;;;25.33;21.82;99505.59;5099341;27;20047;-64
2022/05/08 09:50:58;;;;;;;20.58;9.02;;;;;;;26.84;20.42;99503.72;5098627;27;20357;-63
2022/05/08 09:53:24;;;;;;;15.80;7.95;;;;;;;28.40;18.73;99501.91;5098979;27;20039;-64
2022/05/08 09:55:49;;;;;;;10.68;7.40;;;;;;;29.37;18.18;99502.72;5080700;27;20035;-63
2022/05/08 09:58:14;;;;;;;17.00;9.02;;;;;;;29.72;17.60;99502.81;5079916;27;20054;-64
2022/05/08 10:00:40;;;;;;;15.13;9.05;;;;;;;29.73;17.29;99507.25;5080144;27;20446;-67
2022/05/08 10:03:06;;;;;;;14.13;9.27;;;;;;;30.58;16.59;99513.16;5098548;27;20118;-63
2022/05/08 10:05:31;;;;;;;17.98;9.35;;;;;;;30.09;16.67;99495.22;5080145;27;20039;-62
2022/05/08 10:07:59;;;;;;;15.32;8.35;;;;;;;30.38;16.54;99494.22;5079867;27;20042;-63
2022/05/08 10:15:50;;;;;;;15.07;9.87;;;;;;;31.49;15.31;99464.53;5100103;27;20346;-68
2022/05/08 10:18:31;;;;;;;13.20;9.35;;;;;;;31.20;16.07;99475.59;5098148;27;20288;-62
2022/05/08 10:21:06;;;;;;;14.68;9.02;;;;;;;30.74;16.13;99464.75;5097769;27;20521;-63
2022/05/08 10:23:36;;;;;;;14.75;8.77;;;;;;;29.72;17.03;99459.69;5098176;27;20104;-63
2022/05/08 10:26:23;;;;;;;13.40;8.18;;;;;;;28.44;18.17;99454.56;5097691;27;20051;-63
2022/05/08 10:29:12;;;;;;;12.35;7.97;;;;;;;27.37;19.20;99438.53;5098163;27;20035;-63
2022/05/08 10:31:48;;;;;;;12.13;9.15;;;;;;;25.15;21.37;99448.91;5051447;27;20065;-64
2022/05/08 10:34:14;;;;;;;16.25;7.70;;;;;;;24.98;21.54;99439.44;5097742;27;20527;-64
2022/05/08 10:36:42;;;;;;;15.75;8.35;;;;;;;24.40;22.60;99438.16;5097709;27;20448;-63
2022/05/08 10:39:36;;;;;;;9.95;7.68;;;;;;;23.91;23.30;99432.88;5079582;27;20039;-63
2022/05/08 10:42:00;;;;;;;15.85;8.52;;;;;;;23.41;23.45;99424.75;5079512;27;20046;-63
2022/05/08 10:44:37;;;;;;;11.65;7.50;;;;;;;23.20;23.89;99426.66;5098686;27;20039;-63
2022/05/08 10:47:42;;;;;;;13.63;8.35;;;;;;;22.65;24.54;99398.28;5098827;27;20043;-63
2022/05/08 10:50:11;;;;;;;13.80;7.70;;;;;;;22.46;24.25;99427.75;5079469;27;20136;-64
2022/05/08 10:52:46;;;;;;;16.77;7.38;;;;;;;22.08;25.40;99420.81;5098249;27;20506;-65
2022/05/08 10:55:14;;;;;;;13.55;6.82;;;;;;;21.82;25.68;99414.97;5080549;27;20039;-65
2022/05/08 10:57:40;;;;;;;12.95;7.78;;;;;;;21.23;26.86;99407.59;5063438;27;20042;-63
2022/05/08 11:00:11;;;;;;;16.10;7.78;;;;;;;21.19;26.70;99416.28;5100995;27;20035;-71
2022/05/08 11:02:52;;;;;;;13.88;7.50;;;;;;;21.07;26.63;99398.75;5080861;27;20112;-62
2022/05/08 11:05:24;;;;;;;15.63;8.23;;;;;;;21.36;26.53;99410.53;5100405;27;20115;-62
2022/05/08 11:08:17;;;;;;;10.15;7.05;;;;;;;21.49;26.13;99407.19;5067628;27;20047;-64
2022/05/08 11:10:42;;;;;;;12.90;7.32;;;;;;;21.41;26.85;99401.00;5088791;27;20047;-63
2022/05/08 11:13:11;;;;;;;11.15;5.97;;;;;;;21.85;25.93;99410.00;5090337;27;20047;-62
2022/05/08 11:15:38;;;;;;;13.13;6.93;;;;;;;21.81;26.50;99392.41;5108797;27;20138;-63
2022/05/08 11:18:17;;;;;;;11.50;7.35;;;;;;;21.95;26.19;99404.31;5107564;27;20049;-62
2022/05/08 11:20:57;;;;;;;11.52;6.68;;;;;;;21.86;26.70;99397.28;5108609;27;20121;-63
2022/05/08 11:23:25;;;;;;;10.75;6.88;;;;;;;21.83;26.97;99381.38;5087606;27;20046;-63
2022/05/08 11:25:52;;;;;;;10.27;6.90;;;;;;;21.77;26.66;99396.56;5106866;27;20043;-64
2022/05/08 11:28:20;;;;;;;11.48;6.82;;;;;;;21.62;26.88;99396.53;5108487;27;20072;-62
2022/05/08 11:30:47;;;;;;;14.45;6.80;;;;;;;21.54;27.39;99387.66;5081908;27;20166;-62
2022/05/08 11:36:05;;;;;;;12.25;7.00;;;;;;;21.42;27.81;99375.56;5098520;27;20792;-69
2022/05/08 11:38:50;;;;;;;14.93;7.00;;;;;;;21.30;27.91;99386.88;5079561;27;20057;-71
2022/05/08 11:41:16;;;;;;;10.60;6.88;;;;;;;21.22;28.10;99391.53;5097818;27;20411;-74
2022/05/08 11:43:43;;;;;;;14.15;6.97;;;;;;;21.30;28.08;99373.31;5099120;27;20043;-75
2022/05/08 11:46:09;;;;;;;8.40;6.30;;;;;;;21.18;28.09;99379.34;5081232;27;20049;-76
2022/05/08 11:48:40;;;;;;;11.48;6.90;;;;;;;21.14;28.34;99375.28;5080743;27;20047;-74